sensor_id;sensor_type;location;lat;lon;timestamp;P1;durP1;ratioP1;P2;durP2;ratioP2
32242;SDS011;18731;42.830;24.390;2024-01-30T00:02:10;7.82;;;4.40;;
32242;SDS011;18731;42.830;24.390;2024-01-30T00:04:35;9.13;;;4.93;;
32242;SDS011;18731;42.830;24.390;2024-01-30T00:07:01;8.75;;;4.22;;
32242;SDS011;18731;42.830;24.390;2024-01-30T00:09:26;6.93;;;4.18;;
32242;SDS011;18731;42.830;24.390;2024-01-30T00:11:52;8.10;;;4.35;;
32242;SDS011;18731;42.830;24.390;2024-01-30T00:14:17;8.98;;;5.05;;
32242;SDS011;18731;42.830;24.390;2024-01-30T00:16:43;7.55;;;4.22;;
32242;SDS011;18731;42.830;24.390;2024-01-30T00:19:09;8.40;;;4.13;;
32242;SDS011;18731;42.830;24.390;2024-01-30T00:21:34;7.53;;;4.07;;
32242;SDS011;18731;42.830;24.390;2024-01-30T00:24:00;8.73;;;3.97;;
32242;SDS011;18731;42.830;24.390;2024-01-30T00:26:25;7.53;;;3.88;;
32242;SDS011;18731;42.830;24.390;2024-01-30T00:28:51;5.50;;;3.50;;
32242;SDS011;18731;42.830;24.390;2024-01-30T00:31:16;7.65;;;3.72;;
32242;SDS011;18731;42.830;24.390;2024-01-30T00:33:42;7.25;;;3.67;;
32242;SDS011;18731;42.830;24.390;2024-01-30T00:36:08;8.65;;;3.92;;
32242;SDS011;18731;42.830;24.390;2024-01-30T00:38:34;6.78;;;4.03;;
32242;SDS011;18731;42.830;24.390;2024-01-30T00:41:00;6.95;;;3.67;;
32242;SDS011;18731;42.830;24.390;2024-01-30T00:43:27;7.10;;;3.55;;
32242;SDS011;18731;42.830;24.390;2024-01-30T00:45:53;5.43;;;3.13;;
32242;SDS011;18731;42.830;24.390;2024-01-30T00:48:19;7.40;;;3.80;;
32242;SDS011;18731;42.830;24.390;2024-01-30T00:50:44;6.18;;;3.50;;
32242;SDS011;18731;42.830;24.390;2024-01-30T00:53:10;7.40;;;4.25;;
32242;SDS011;18731;42.830;24.390;2024-01-30T00:55:36;6.80;;;3.75;;
32242;SDS011;18731;42.830;24.390;2024-01-30T00:58:01;5.55;;;3.20;;
32242;SDS011;18731;42.830;24.390;2024-01-30T01:00:28;6.03;;;2.83;;
32242;SDS011;18731;42.830;24.390;2024-01-30T01:02:57;5.32;;;3.30;;
32242;SDS011;18731;42.830;24.390;2024-01-30T01:05:23;7.93;;;3.40;;
32242;SDS011;18731;42.830;24.390;2024-01-30T01:07:49;6.90;;;3.50;;
32242;SDS011;18731;42.830;24.390;2024-01-30T01:10:14;5.35;;;2.97;;
32242;SDS011;18731;42.830;24.390;2024-01-30T01:12:41;7.03;;;3.50;;
32242;SDS011;18731;42.830;24.390;2024-01-30T01:15:07;3.75;;;2.20;;
32242;SDS011;18731;42.830;24.390;2024-01-30T01:17:39;3.40;;;2.42;;
32242;SDS011;18731;42.830;24.390;2024-01-30T01:20:06;3.63;;;2.00;;
32242;SDS011;18731;42.830;24.390;2024-01-30T01:22:32;5.53;;;2.95;;
32242;SDS011;18731;42.830;24.390;2024-01-30T01:24:58;3.40;;;2.10;;
32242;SDS011;18731;42.830;24.390;2024-01-30T01:27:24;3.65;;;2.20;;
32242;SDS011;18731;42.830;24.390;2024-01-30T01:29:50;4.35;;;2.38;;
32242;SDS011;18731;42.830;24.390;2024-01-30T01:32:16;4.07;;;2.42;;
32242;SDS011;18731;42.830;24.390;2024-01-30T01:34:42;3.03;;;2.05;;
32242;SDS011;18731;42.830;24.390;2024-01-30T01:37:07;3.42;;;2.08;;
32242;SDS011;18731;42.830;24.390;2024-01-30T01:39:33;3.15;;;1.90;;
32242;SDS011;18731;42.830;24.390;2024-01-30T01:41:59;4.68;;;2.25;;
32242;SDS011;18731;42.830;24.390;2024-01-30T01:44:24;2.47;;;1.75;;
32242;SDS011;18731;42.830;24.390;2024-01-30T01:46:50;3.38;;;1.70;;
32242;SDS011;18731;42.830;24.390;2024-01-30T01:49:16;3.97;;;2.30;;
32242;SDS011;18731;42.830;24.390;2024-01-30T01:51:43;2.60;;;2.10;;
32242;SDS011;18731;42.830;24.390;2024-01-30T01:54:10;3.35;;;2.03;;
32242;SDS011;18731;42.830;24.390;2024-01-30T01:56:36;3.08;;;1.65;;
32242;SDS011;18731;42.830;24.390;2024-01-30T01:59:06;2.95;;;1.80;;
32242;SDS011;18731;42.830;24.390;2024-01-30T02:01:33;3.58;;;2.00;;
32242;SDS011;18731;42.830;24.390;2024-01-30T02:04:01;3.65;;;1.90;;
32242;SDS011;18731;42.830;24.390;2024-01-30T02:06:27;2.88;;;1.60;;
32242;SDS011;18731;42.830;24.390;2024-01-30T02:08:53;3.35;;;1.90;;
32242;SDS011;18731;42.830;24.390;2024-01-30T02:11:19;3.83;;;1.95;;
32242;SDS011;18731;42.830;24.390;2024-01-30T02:13:45;3.33;;;2.15;;
32242;SDS011;18731;42.830;24.390;2024-01-30T02:16:11;2.85;;;1.50;;
32242;SDS011;18731;42.830;24.390;2024-01-30T02:18:37;1.85;;;1.33;;
32242;SDS011;18731;42.830;24.390;2024-01-30T02:21:07;3.00;;;1.67;;
32242;SDS011;18731;42.830;24.390;2024-01-30T02:23:33;2.97;;;1.90;;
32242;SDS011;18731;42.830;24.390;2024-01-30T02:25:59;3.45;;;1.95;;
32242;SDS011;18731;42.830;24.390;2024-01-30T02:28:25;3.10;;;1.90;;
32242;SDS011;18731;42.830;24.390;2024-01-30T02:30:51;3.78;;;2.00;;
32242;SDS011;18731;42.830;24.390;2024-01-30T02:33:16;4.97;;;2.40;;
32242;SDS011;18731;42.830;24.390;2024-01-30T02:35:42;3.92;;;2.35;;
32242;SDS011;18731;42.830;24.390;2024-01-30T02:38:07;4.82;;;2.42;;
32242;SDS011;18731;42.830;24.390;2024-01-30T02:40:33;3.10;;;2.00;;
32242;SDS011;18731;42.830;24.390;2024-01-30T02:42:59;5.05;;;2.60;;
32242;SDS011;18731;42.830;24.390;2024-01-30T02:45:25;3.17;;;2.00;;
32242;SDS011;18731;42.830;24.390;2024-01-30T02:47:51;2.75;;;1.90;;
32242;SDS011;18731;42.830;24.390;2024-01-30T02:50:16;2.42;;;1.55;;
32242;SDS011;18731;42.830;24.390;2024-01-30T02:52:42;3.08;;;1.45;;
32242;SDS011;18731;42.830;24.390;2024-01-30T02:55:11;2.97;;;1.73;;
32242;SDS011;18731;42.830;24.390;2024-01-30T02:57:37;1.55;;;1.20;;
32242;SDS011;18731;42.830;24.390;2024-01-30T03:00:04;1.90;;;1.27;;
32242;SDS011;18731;42.830;24.390;2024-01-30T03:02:31;2.92;;;1.60;;
32242;SDS011;18731;42.830;24.390;2024-01-30T03:04:59;2.33;;;1.60;;
32242;SDS011;18731;42.830;24.390;2024-01-30T03:07:25;3.50;;;1.85;;
32242;SDS011;18731;42.830;24.390;2024-01-30T03:09:50;2.53;;;1.77;;
32242;SDS011;18731;42.830;24.390;2024-01-30T03:12:16;2.67;;;1.70;;
32242;SDS011;18731;42.830;24.390;2024-01-30T03:14:41;2.53;;;1.65;;
32242;SDS011;18731;42.830;24.390;2024-01-30T03:17:07;3.00;;;2.10;;
32242;SDS011;18731;42.830;24.390;2024-01-30T03:19:33;3.05;;;1.80;;
32242;SDS011;18731;42.830;24.390;2024-01-30T03:21:58;2.65;;;1.80;;
32242;SDS011;18731;42.830;24.390;2024-01-30T03:24:25;3.15;;;1.90;;
32242;SDS011;18731;42.830;24.390;2024-01-30T03:26:50;2.40;;;1.73;;
32242;SDS011;18731;42.830;24.390;2024-01-30T03:29:16;2.83;;;1.90;;
32242;SDS011;18731;42.830;24.390;2024-01-30T03:31:42;4.68;;;2.22;;
32242;SDS011;18731;42.830;24.390;2024-01-30T03:34:07;3.75;;;2.22;;
32242;SDS011;18731;42.830;24.390;2024-01-30T03:36:32;2.67;;;1.77;;
32242;SDS011;18731;42.830;24.390;2024-01-30T03:38:59;3.92;;;1.90;;
32242;SDS011;18731;42.830;24.390;2024-01-30T03:41:25;2.97;;;2.00;;
32242;SDS011;18731;42.830;24.390;2024-01-30T03:43:51;4.20;;;2.30;;
32242;SDS011;18731;42.830;24.390;2024-01-30T03:46:16;3.92;;;2.38;;
32242;SDS011;18731;42.830;24.390;2024-01-30T03:48:42;5.35;;;2.30;;
32242;SDS011;18731;42.830;24.390;2024-01-30T03:51:08;4.05;;;2.13;;
32242;SDS011;18731;42.830;24.390;2024-01-30T03:53:34;2.65;;;2.10;;
32242;SDS011;18731;42.830;24.390;2024-01-30T03:56:00;2.75;;;2.00;;
32242;SDS011;18731;42.830;24.390;2024-01-30T03:58:25;3.63;;;2.28;;
32242;SDS011;18731;42.830;24.390;2024-01-30T04:00:51;4.38;;;2.35;;
32242;SDS011;18731;42.830;24.390;2024-01-30T04:03:17;4.80;;;2.30;;
32242;SDS011;18731;42.830;24.390;2024-01-30T04:05:42;4.40;;;2.17;;
32242;SDS011;18731;42.830;24.390;2024-01-30T04:08:08;6.32;;;3.00;;
32242;SDS011;18731;42.830;24.390;2024-01-30T04:10:34;5.32;;;2.67;;
32242;SDS011;18731;42.830;24.390;2024-01-30T04:13:00;2.97;;;2.08;;
32242;SDS011;18731;42.830;24.390;2024-01-30T04:15:25;5.30;;;2.65;;
32242;SDS011;18731;42.830;24.390;2024-01-30T04:17:52;3.72;;;2.17;;
32242;SDS011;18731;42.830;24.390;2024-01-30T04:20:17;16.27;;;7.07;;
32242;SDS011;18731;42.830;24.390;2024-01-30T04:22:43;7.50;;;5.18;;
32242;SDS011;18731;42.830;24.390;2024-01-30T04:25:10;4.40;;;2.88;;
32242;SDS011;18731;42.830;24.390;2024-01-30T04:27:36;6.70;;;3.75;;
32242;SDS011;18731;42.830;24.390;2024-01-30T04:30:01;6.28;;;3.08;;
32242;SDS011;18731;42.830;24.390;2024-01-30T04:32:27;6.22;;;2.53;;
32242;SDS011;18731;42.830;24.390;2024-01-30T04:34:52;4.70;;;2.60;;
32242;SDS011;18731;42.830;24.390;2024-01-30T04:37:18;5.78;;;2.80;;
32242;SDS011;18731;42.830;24.390;2024-01-30T04:39:43;6.30;;;3.78;;
32242;SDS011;18731;42.830;24.390;2024-01-30T04:42:09;8.48;;;4.97;;
32242;SDS011;18731;42.830;24.390;2024-01-30T04:44:34;6.05;;;3.15;;
32242;SDS011;18731;42.830;24.390;2024-01-30T04:47:00;5.80;;;3.03;;
32242;SDS011;18731;42.830;24.390;2024-01-30T04:49:26;6.50;;;3.28;;
32242;SDS011;18731;42.830;24.390;2024-01-30T04:51:52;3.67;;;2.58;;
32242;SDS011;18731;42.830;24.390;2024-01-30T04:54:18;4.22;;;2.40;;
32242;SDS011;18731;42.830;24.390;2024-01-30T04:56:44;5.50;;;3.10;;
32242;SDS011;18731;42.830;24.390;2024-01-30T04:59:09;3.85;;;2.30;;
32242;SDS011;18731;42.830;24.390;2024-01-30T05:01:35;4.25;;;2.40;;
32242;SDS011;18731;42.830;24.390;2024-01-30T05:04:00;4.40;;;2.20;;
32242;SDS011;18731;42.830;24.390;2024-01-30T05:06:27;3.78;;;2.38;;
32242;SDS011;18731;42.830;24.390;2024-01-30T05:08:53;3.70;;;2.13;;
32242;SDS011;18731;42.830;24.390;2024-01-30T05:11:19;5.25;;;2.70;;
32242;SDS011;18731;42.830;24.390;2024-01-30T05:13:44;5.07;;;3.20;;
32242;SDS011;18731;42.830;24.390;2024-01-30T05:16:10;5.18;;;3.10;;
32242;SDS011;18731;42.830;24.390;2024-01-30T05:18:35;11.45;;;4.70;;
32242;SDS011;18731;42.830;24.390;2024-01-30T05:21:01;11.00;;;4.55;;
32242;SDS011;18731;42.830;24.390;2024-01-30T05:23:27;9.52;;;4.10;;
32242;SDS011;18731;42.830;24.390;2024-01-30T05:25:53;10.00;;;4.47;;
32242;SDS011;18731;42.830;24.390;2024-01-30T05:28:18;12.32;;;5.35;;
32242;SDS011;18731;42.830;24.390;2024-01-30T05:30:44;8.48;;;3.58;;
32242;SDS011;18731;42.830;24.390;2024-01-30T05:33:09;3.30;;;2.35;;
32242;SDS011;18731;42.830;24.390;2024-01-30T05:35:37;2.97;;;2.38;;
32242;SDS011;18731;42.830;24.390;2024-01-30T05:38:03;3.22;;;2.20;;
32242;SDS011;18731;42.830;24.390;2024-01-30T05:40:28;3.75;;;1.90;;
32242;SDS011;18731;42.830;24.390;2024-01-30T05:42:54;2.95;;;2.20;;
32242;SDS011;18731;42.830;24.390;2024-01-30T05:45:19;3.13;;;2.00;;
32242;SDS011;18731;42.830;24.390;2024-01-30T05:47:45;3.60;;;2.50;;
32242;SDS011;18731;42.830;24.390;2024-01-30T05:50:10;4.22;;;2.40;;
32242;SDS011;18731;42.830;24.390;2024-01-30T05:52:36;3.58;;;2.33;;
32242;SDS011;18731;42.830;24.390;2024-01-30T05:55:02;5.63;;;3.38;;
32242;SDS011;18731;42.830;24.390;2024-01-30T05:57:28;6.20;;;3.90;;
32242;SDS011;18731;42.830;24.390;2024-01-30T05:59:53;7.65;;;4.45;;
32242;SDS011;18731;42.830;24.390;2024-01-30T06:02:19;5.22;;;3.50;;
32242;SDS011;18731;42.830;24.390;2024-01-30T06:04:44;9.02;;;3.10;;
32242;SDS011;18731;42.830;24.390;2024-01-30T06:07:10;8.40;;;3.15;;
32242;SDS011;18731;42.830;24.390;2024-01-30T06:09:35;11.25;;;3.42;;
32242;SDS011;18731;42.830;24.390;2024-01-30T06:12:01;5.45;;;2.60;;
32242;SDS011;18731;42.830;24.390;2024-01-30T06:14:26;10.90;;;4.28;;
32242;SDS011;18731;42.830;24.390;2024-01-30T06:16:52;13.10;;;4.90;;
32242;SDS011;18731;42.830;24.390;2024-01-30T06:19:17;3.80;;;2.25;;
32242;SDS011;18731;42.830;24.390;2024-01-30T06:21:43;6.70;;;3.08;;
32242;SDS011;18731;42.830;24.390;2024-01-30T06:24:10;3.85;;;2.17;;
32242;SDS011;18731;42.830;24.390;2024-01-30T06:26:35;3.60;;;2.10;;
32242;SDS011;18731;42.830;24.390;2024-01-30T06:29:01;2.70;;;2.00;;
32242;SDS011;18731;42.830;24.390;2024-01-30T06:31:26;4.43;;;2.35;;
32242;SDS011;18731;42.830;24.390;2024-01-30T06:33:52;3.80;;;2.17;;
32242;SDS011;18731;42.830;24.390;2024-01-30T06:36:18;4.57;;;2.53;;
32242;SDS011;18731;42.830;24.390;2024-01-30T06:38:43;5.15;;;2.70;;
32242;SDS011;18731;42.830;24.390;2024-01-30T06:41:09;4.07;;;2.38;;
32242;SDS011;18731;42.830;24.390;2024-01-30T06:43:34;4.15;;;2.63;;
32242;SDS011;18731;42.830;24.390;2024-01-30T06:46:00;3.95;;;2.30;;
32242;SDS011;18731;42.830;24.390;2024-01-30T06:48:25;4.45;;;2.53;;
32242;SDS011;18731;42.830;24.390;2024-01-30T06:50:54;3.70;;;2.40;;
32242;SDS011;18731;42.830;24.390;2024-01-30T06:53:19;4.25;;;2.28;;
32242;SDS011;18731;42.830;24.390;2024-01-30T06:55:45;7.22;;;3.10;;
32242;SDS011;18731;42.830;24.390;2024-01-30T06:58:11;3.33;;;2.38;;
32242;SDS011;18731;42.830;24.390;2024-01-30T07:00:36;5.80;;;2.33;;
32242;SDS011;18731;42.830;24.390;2024-01-30T07:03:03;4.20;;;2.60;;
32242;SDS011;18731;42.830;24.390;2024-01-30T07:05:28;3.40;;;2.08;;
32242;SDS011;18731;42.830;24.390;2024-01-30T07:07:54;6.88;;;3.10;;
32242;SDS011;18731;42.830;24.390;2024-01-30T07:10:19;5.25;;;2.45;;
32242;SDS011;18731;42.830;24.390;2024-01-30T07:12:45;4.18;;;2.20;;
32242;SDS011;18731;42.830;24.390;2024-01-30T07:15:10;9.35;;;4.97;;
32242;SDS011;18731;42.830;24.390;2024-01-30T07:17:36;5.75;;;3.30;;
32242;SDS011;18731;42.830;24.390;2024-01-30T07:20:02;4.95;;;2.95;;
32242;SDS011;18731;42.830;24.390;2024-01-30T07:22:31;4.75;;;2.88;;
32242;SDS011;18731;42.830;24.390;2024-01-30T07:24:56;4.20;;;2.63;;
32242;SDS011;18731;42.830;24.390;2024-01-30T07:27:22;5.57;;;2.90;;
32242;SDS011;18731;42.830;24.390;2024-01-30T07:29:48;4.57;;;2.88;;
32242;SDS011;18731;42.830;24.390;2024-01-30T07:32:14;4.75;;;2.75;;
32242;SDS011;18731;42.830;24.390;2024-01-30T07:34:39;5.80;;;3.08;;
32242;SDS011;18731;42.830;24.390;2024-01-30T07:37:05;4.65;;;2.88;;
32242;SDS011;18731;42.830;24.390;2024-01-30T07:39:33;7.43;;;3.00;;
32242;SDS011;18731;42.830;24.390;2024-01-30T07:41:59;6.38;;;3.15;;
32242;SDS011;18731;42.830;24.390;2024-01-30T07:44:24;6.18;;;3.00;;
32242;SDS011;18731;42.830;24.390;2024-01-30T07:46:50;6.90;;;2.97;;
32242;SDS011;18731;42.830;24.390;2024-01-30T07:49:15;5.53;;;2.83;;
32242;SDS011;18731;42.830;24.390;2024-01-30T07:51:41;6.30;;;2.70;;
32242;SDS011;18731;42.830;24.390;2024-01-30T07:54:06;5.05;;;2.70;;
32242;SDS011;18731;42.830;24.390;2024-01-30T07:56:32;4.40;;;2.63;;
32242;SDS011;18731;42.830;24.390;2024-01-30T07:58:57;5.47;;;2.78;;
32242;SDS011;18731;42.830;24.390;2024-01-30T08:01:23;4.18;;;2.72;;
32242;SDS011;18731;42.830;24.390;2024-01-30T08:03:48;5.07;;;2.85;;
32242;SDS011;18731;42.830;24.390;2024-01-30T08:06:13;7.78;;;2.83;;
32242;SDS011;18731;42.830;24.390;2024-01-30T08:08:39;4.25;;;2.40;;
32242;SDS011;18731;42.830;24.390;2024-01-30T08:11:04;4.57;;;2.70;;
32242;SDS011;18731;42.830;24.390;2024-01-30T08:13:30;5.60;;;2.65;;
32242;SDS011;18731;42.830;24.390;2024-01-30T08:15:56;3.90;;;2.38;;
32242;SDS011;18731;42.830;24.390;2024-01-30T08:18:21;4.10;;;2.65;;
32242;SDS011;18731;42.830;24.390;2024-01-30T08:20:47;4.00;;;2.50;;
32242;SDS011;18731;42.830;24.390;2024-01-30T08:23:12;3.70;;;2.28;;
32242;SDS011;18731;42.830;24.390;2024-01-30T08:25:38;4.22;;;2.75;;
32242;SDS011;18731;42.830;24.390;2024-01-30T08:28:03;4.25;;;2.30;;
32242;SDS011;18731;42.830;24.390;2024-01-30T08:30:29;4.15;;;2.35;;
32242;SDS011;18731;42.830;24.390;2024-01-30T08:32:55;4.60;;;2.55;;
32242;SDS011;18731;42.830;24.390;2024-01-30T08:35:20;5.75;;;2.90;;
32242;SDS011;18731;42.830;24.390;2024-01-30T08:37:45;5.43;;;2.65;;
32242;SDS011;18731;42.830;24.390;2024-01-30T08:40:11;5.07;;;2.80;;
32242;SDS011;18731;42.830;24.390;2024-01-30T08:42:36;4.75;;;2.70;;
32242;SDS011;18731;42.830;24.390;2024-01-30T08:45:02;7.50;;;3.30;;
32242;SDS011;18731;42.830;24.390;2024-01-30T08:47:30;5.47;;;3.00;;
32242;SDS011;18731;42.830;24.390;2024-01-30T08:49:56;7.15;;;3.47;;
32242;SDS011;18731;42.830;24.390;2024-01-30T08:52:21;4.45;;;2.60;;
32242;SDS011;18731;42.830;24.390;2024-01-30T08:54:47;4.63;;;2.75;;
32242;SDS011;18731;42.830;24.390;2024-01-30T08:57:12;4.57;;;2.50;;
32242;SDS011;18731;42.830;24.390;2024-01-30T08:59:38;4.85;;;2.60;;
32242;SDS011;18731;42.830;24.390;2024-01-30T09:02:03;4.60;;;2.70;;
32242;SDS011;18731;42.830;24.390;2024-01-30T09:04:30;5.05;;;2.70;;
32242;SDS011;18731;42.830;24.390;2024-01-30T09:06:55;10.10;;;4.15;;
32242;SDS011;18731;42.830;24.390;2024-01-30T09:09:21;5.70;;;2.97;;
32242;SDS011;18731;42.830;24.390;2024-01-30T09:11:46;3.90;;;2.17;;
32242;SDS011;18731;42.830;24.390;2024-01-30T09:14:12;4.40;;;2.70;;
32242;SDS011;18731;42.830;24.390;2024-01-30T09:16:37;5.88;;;2.50;;
32242;SDS011;18731;42.830;24.390;2024-01-30T09:19:03;5.45;;;2.75;;
32242;SDS011;18731;42.830;24.390;2024-01-30T09:21:29;4.28;;;2.47;;
32242;SDS011;18731;42.830;24.390;2024-01-30T09:24:00;4.30;;;2.58;;
32242;SDS011;18731;42.830;24.390;2024-01-30T09:26:28;4.10;;;2.45;;
32242;SDS011;18731;42.830;24.390;2024-01-30T09:28:53;4.35;;;2.60;;
32242;SDS011;18731;42.830;24.390;2024-01-30T09:31:18;5.38;;;2.80;;
32242;SDS011;18731;42.830;24.390;2024-01-30T09:33:44;4.43;;;2.70;;
32242;SDS011;18731;42.830;24.390;2024-01-30T09:36:12;3.72;;;2.20;;
32242;SDS011;18731;42.830;24.390;2024-01-30T09:38:40;3.63;;;2.33;;
32242;SDS011;18731;42.830;24.390;2024-01-30T09:41:07;3.20;;;2.10;;
32242;SDS011;18731;42.830;24.390;2024-01-30T09:43:35;3.92;;;2.30;;
32242;SDS011;18731;42.830;24.390;2024-01-30T09:46:02;4.93;;;2.50;;
32242;SDS011;18731;42.830;24.390;2024-01-30T09:48:30;3.95;;;2.22;;
32242;SDS011;18731;42.830;24.390;2024-01-30T09:50:59;3.63;;;2.05;;
32242;SDS011;18731;42.830;24.390;2024-01-30T09:53:25;3.08;;;2.00;;
32242;SDS011;18731;42.830;24.390;2024-01-30T09:55:51;2.65;;;1.83;;
32242;SDS011;18731;42.830;24.390;2024-01-30T09:58:17;3.65;;;2.13;;
32242;SDS011;18731;42.830;24.390;2024-01-30T10:00:42;5.90;;;2.42;;
32242;SDS011;18731;42.830;24.390;2024-01-30T10:03:08;5.05;;;2.88;;
32242;SDS011;18731;42.830;24.390;2024-01-30T10:05:35;8.55;;;2.90;;
32242;SDS011;18731;42.830;24.390;2024-01-30T10:08:05;4.25;;;2.55;;
32242;SDS011;18731;42.830;24.390;2024-01-30T10:10:33;23.48;;;6.47;;
32242;SDS011;18731;42.830;24.390;2024-01-30T10:13:00;6.15;;;2.80;;
32242;SDS011;18731;42.830;24.390;2024-01-30T10:15:26;4.10;;;2.30;;
32242;SDS011;18731;42.830;24.390;2024-01-30T10:17:53;4.38;;;2.53;;
32242;SDS011;18731;42.830;24.390;2024-01-30T10:20:19;12.50;;;4.90;;
32242;SDS011;18731;42.830;24.390;2024-01-30T10:22:45;10.15;;;4.10;;
32242;SDS011;18731;42.830;24.390;2024-01-30T10:25:10;17.95;;;6.43;;
32242;SDS011;18731;42.830;24.390;2024-01-30T10:27:36;7.97;;;4.10;;
32242;SDS011;18731;42.830;24.390;2024-01-30T10:30:02;5.82;;;2.88;;
32242;SDS011;18731;42.830;24.390;2024-01-30T10:32:29;7.22;;;2.58;;
32242;SDS011;18731;42.830;24.390;2024-01-30T10:34:54;6.72;;;3.40;;
32242;SDS011;18731;42.830;24.390;2024-01-30T10:37:20;9.55;;;4.53;;
32242;SDS011;18731;42.830;24.390;2024-01-30T10:39:50;8.43;;;4.20;;
32242;SDS011;18731;42.830;24.390;2024-01-30T10:42:18;9.95;;;4.00;;
32242;SDS011;18731;42.830;24.390;2024-01-30T10:47:26;3.67;;;2.20;;
32242;SDS011;18731;42.830;24.390;2024-01-30T10:49:52;5.80;;;3.38;;
32242;SDS011;18731;42.830;24.390;2024-01-30T11:11:57;7.55;;;3.90;;
32242;SDS011;18731;42.830;24.390;2024-01-30T11:14:25;9.10;;;4.80;;
32242;SDS011;18731;42.830;24.390;2024-01-30T11:16:51;6.70;;;3.80;;
32242;SDS011;18731;42.830;24.390;2024-01-30T11:19:23;6.07;;;3.70;;
32242;SDS011;18731;42.830;24.390;2024-01-30T11:21:51;8.05;;;4.15;;
32242;SDS011;18731;42.830;24.390;2024-01-30T11:24:22;6.90;;;4.38;;
32242;SDS011;18731;42.830;24.390;2024-01-30T11:26:55;7.72;;;4.00;;
32242;SDS011;18731;42.830;24.390;2024-01-30T11:29:24;7.10;;;4.07;;
32242;SDS011;18731;42.830;24.390;2024-01-30T11:31:54;11.10;;;4.32;;
32242;SDS011;18731;42.830;24.390;2024-01-30T11:34:20;6.15;;;3.65;;
32242;SDS011;18731;42.830;24.390;2024-01-30T11:36:59;7.60;;;4.10;;
32242;SDS011;18731;42.830;24.390;2024-01-30T11:39:29;7.47;;;3.53;;
32242;SDS011;18731;42.830;24.390;2024-01-30T11:41:55;4.90;;;2.78;;
32242;SDS011;18731;42.830;24.390;2024-01-30T11:44:21;5.07;;;2.70;;
32242;SDS011;18731;42.830;24.390;2024-01-30T11:46:47;4.53;;;3.00;;
32242;SDS011;18731;42.830;24.390;2024-01-30T11:49:13;4.05;;;2.58;;
32242;SDS011;18731;42.830;24.390;2024-01-30T11:51:39;6.28;;;3.20;;
32242;SDS011;18731;42.830;24.390;2024-01-30T11:54:05;6.15;;;3.00;;
32242;SDS011;18731;42.830;24.390;2024-01-30T11:56:30;6.43;;;3.22;;
32242;SDS011;18731;42.830;24.390;2024-01-30T11:58:56;6.53;;;3.40;;
32242;SDS011;18731;42.830;24.390;2024-01-30T12:01:21;6.05;;;3.40;;
32242;SDS011;18731;42.830;24.390;2024-01-30T12:03:50;8.10;;;3.97;;
32242;SDS011;18731;42.830;24.390;2024-01-30T12:06:16;7.40;;;3.92;;
32242;SDS011;18731;42.830;24.390;2024-01-30T12:08:42;7.15;;;3.90;;
32242;SDS011;18731;42.830;24.390;2024-01-30T12:11:07;7.68;;;4.18;;
32242;SDS011;18731;42.830;24.390;2024-01-30T12:13:33;6.70;;;3.80;;
32242;SDS011;18731;42.830;24.390;2024-01-30T12:15:59;10.95;;;5.38;;
32242;SDS011;18731;42.830;24.390;2024-01-30T12:18:26;7.00;;;3.78;;
32242;SDS011;18731;42.830;24.390;2024-01-30T12:21:01;7.10;;;3.90;;
32242;SDS011;18731;42.830;24.390;2024-01-30T12:23:27;8.60;;;3.40;;
32242;SDS011;18731;42.830;24.390;2024-01-30T12:25:53;5.82;;;3.60;;
32242;SDS011;18731;42.830;24.390;2024-01-30T12:28:19;7.32;;;3.40;;
32242;SDS011;18731;42.830;24.390;2024-01-30T12:30:45;7.05;;;3.75;;
32242;SDS011;18731;42.830;24.390;2024-01-30T12:33:16;6.65;;;3.53;;
32242;SDS011;18731;42.830;24.390;2024-01-30T12:35:46;6.63;;;3.47;;
32242;SDS011;18731;42.830;24.390;2024-01-30T12:38:15;6.72;;;3.33;;
32242;SDS011;18731;42.830;24.390;2024-01-30T12:40:41;8.75;;;3.90;;
32242;SDS011;18731;42.830;24.390;2024-01-30T12:43:06;5.22;;;3.47;;
32242;SDS011;18731;42.830;24.390;2024-01-30T12:45:32;6.20;;;3.70;;
32242;SDS011;18731;42.830;24.390;2024-01-30T12:47:58;7.05;;;4.10;;
32242;SDS011;18731;42.830;24.390;2024-01-30T12:50:24;7.90;;;3.90;;
32242;SDS011;18731;42.830;24.390;2024-01-30T12:52:49;7.70;;;4.28;;
32242;SDS011;18731;42.830;24.390;2024-01-30T12:55:15;9.30;;;4.05;;
32242;SDS011;18731;42.830;24.390;2024-01-30T12:57:40;8.68;;;4.50;;
32242;SDS011;18731;42.830;24.390;2024-01-30T13:00:07;7.40;;;4.07;;
32242;SDS011;18731;42.830;24.390;2024-01-30T13:02:33;8.95;;;4.07;;
32242;SDS011;18731;42.830;24.390;2024-01-30T13:05:02;9.95;;;4.80;;
32242;SDS011;18731;42.830;24.390;2024-01-30T13:07:28;8.00;;;4.15;;
32242;SDS011;18731;42.830;24.390;2024-01-30T13:09:54;7.80;;;3.90;;
32242;SDS011;18731;42.830;24.390;2024-01-30T13:12:20;18.98;;;6.13;;
32242;SDS011;18731;42.830;24.390;2024-01-30T13:14:45;9.43;;;5.07;;
32242;SDS011;18731;42.830;24.390;2024-01-30T13:17:11;11.73;;;4.43;;
32242;SDS011;18731;42.830;24.390;2024-01-30T13:19:36;8.20;;;4.10;;
32242;SDS011;18731;42.830;24.390;2024-01-30T13:22:02;8.43;;;4.35;;
32242;SDS011;18731;42.830;24.390;2024-01-30T13:24:27;6.07;;;3.38;;
32242;SDS011;18731;42.830;24.390;2024-01-30T13:26:53;6.15;;;3.20;;
32242;SDS011;18731;42.830;24.390;2024-01-30T13:29:18;7.25;;;3.88;;
32242;SDS011;18731;42.830;24.390;2024-01-30T13:31:44;10.77;;;5.55;;
32242;SDS011;18731;42.830;24.390;2024-01-30T13:34:11;12.68;;;5.65;;
32242;SDS011;18731;42.830;24.390;2024-01-30T13:36:37;9.77;;;5.38;;
32242;SDS011;18731;42.830;24.390;2024-01-30T13:39:03;7.13;;;3.90;;
32242;SDS011;18731;42.830;24.390;2024-01-30T13:41:32;7.47;;;3.78;;
32242;SDS011;18731;42.830;24.390;2024-01-30T13:43:58;6.80;;;3.72;;
32242;SDS011;18731;42.830;24.390;2024-01-30T13:46:23;6.53;;;3.58;;
32242;SDS011;18731;42.830;24.390;2024-01-30T13:48:49;7.53;;;4.25;;
32242;SDS011;18731;42.830;24.390;2024-01-30T13:51:15;7.22;;;3.72;;
32242;SDS011;18731;42.830;24.390;2024-01-30T13:53:42;8.25;;;4.30;;
32242;SDS011;18731;42.830;24.390;2024-01-30T13:56:07;12.40;;;5.22;;
32242;SDS011;18731;42.830;24.390;2024-01-30T13:58:33;14.18;;;6.80;;
32242;SDS011;18731;42.830;24.390;2024-01-30T14:01:01;13.07;;;6.85;;
32242;SDS011;18731;42.830;24.390;2024-01-30T14:03:27;13.32;;;6.75;;
32242;SDS011;18731;42.830;24.390;2024-01-30T14:05:53;13.38;;;5.18;;
32242;SDS011;18731;42.830;24.390;2024-01-30T14:08:18;12.60;;;5.63;;
32242;SDS011;18731;42.830;24.390;2024-01-30T14:10:46;16.70;;;6.50;;
32242;SDS011;18731;42.830;24.390;2024-01-30T14:13:12;11.35;;;5.70;;
32242;SDS011;18731;42.830;24.390;2024-01-30T14:15:38;9.40;;;4.55;;
32242;SDS011;18731;42.830;24.390;2024-01-30T14:18:04;7.00;;;3.63;;
32242;SDS011;18731;42.830;24.390;2024-01-30T14:20:30;9.45;;;4.32;;
32242;SDS011;18731;42.830;24.390;2024-01-30T14:22:56;19.95;;;7.53;;
32242;SDS011;18731;42.830;24.390;2024-01-30T14:25:22;14.02;;;5.68;;
32242;SDS011;18731;42.830;24.390;2024-01-30T14:27:47;10.45;;;4.57;;
32242;SDS011;18731;42.830;24.390;2024-01-30T14:30:13;8.65;;;4.53;;
32242;SDS011;18731;42.830;24.390;2024-01-30T14:32:38;8.93;;;3.88;;
32242;SDS011;18731;42.830;24.390;2024-01-30T14:35:05;9.20;;;3.92;;
32242;SDS011;18731;42.830;24.390;2024-01-30T14:37:31;9.35;;;3.90;;
32242;SDS011;18731;42.830;24.390;2024-01-30T14:39:56;7.97;;;4.10;;
32242;SDS011;18731;42.830;24.390;2024-01-30T14:42:22;5.90;;;3.50;;
32242;SDS011;18731;42.830;24.390;2024-01-30T14:44:47;7.28;;;4.07;;
32242;SDS011;18731;42.830;24.390;2024-01-30T14:47:14;8.48;;;4.35;;
32242;SDS011;18731;42.830;24.390;2024-01-30T14:49:39;9.30;;;5.38;;